Time;durP1;ratioP1;P1;durP2;ratioP2;P2;SDS_P1;SDS_P2;PMS_P1;PMS_P2;Temp;Humidity;BMP_temperature;BMP_pressure;BME280_temperature;BME280_humidity;BME280_pressure;Samples;Min_cycle;Max_cycle;Signal;HPM_P1;HPM_P2
2024/02/19 00:01:46;;;;;;;23.70;15.00;;;;;;;0.42;68.31;101110.67;103065;1263;138927;-68
2024/02/19 00:04:14;;;;;;;21.50;14.30;;;;;;;0.39;68.59;101097.95;103388;1260;111452;-67
2024/02/19 00:06:42;;;;;;;24.30;14.50;;;;;;;0.36;68.64;101101.48;102677;1261;109411;-68
2024/02/19 00:09:09;;;;;;;22.50;13.40;;;;;;;0.34;68.84;101094.05;102707;1260;138707;-68
2024/02/19 00:11:37;;;;;;;21.80;14.00;;;;;;;0.35;68.78;101090.64;102737;1260;107462;-67
2024/02/19 00:14:04;;;;;;;21.90;13.60;;;;;;;0.35;68.96;101088.98;102792;1260;138533;-68
2024/02/19 00:16:32;;;;;;;22.40;14.30;;;;;;;0.37;69.34;101088.50;102800;1263;110741;-69
2024/02/19 00:18:59;;;;;;;23.40;14.30;;;;;;;0.36;69.21;101087.29;102770;1264;106637;-68
2024/02/19 00:21:26;;;;;;;20.70;14.00;;;;;;;0.36;69.20;101087.42;102717;1261;137794;-68
2024/02/19 00:23:53;;;;;;;24.60;14.60;;;;;;;0.34;69.46;101090.30;102803;1260;108291;-67
2024/02/19 00:26:20;;;;;;;22.10;13.40;;;;;;;0.31;69.57;101088.17;102612;1261;138534;-68
2024/02/19 00:28:48;;;;;;;20.00;13.30;;;;;;;0.27;69.28;101083.30;102664;1260;110954;-68
2024/02/19 00:31:16;;;;;;;23.90;13.60;;;;;;;0.28;69.22;101087.95;102612;1260;139776;-68
2024/02/19 00:33:43;;;;;;;19.40;13.10;;;;;;;0.32;69.53;101088.02;102749;1260;97807;-68
2024/02/19 00:36:11;;;;;;;22.40;13.60;;;;;;;0.34;70.06;101086.35;102767;1261;108240;-68
2024/02/19 00:38:38;;;;;;;21.30;14.20;;;;;;;0.32;69.81;101076.58;102679;1261;137869;-68
2024/02/19 00:41:05;;;;;;;23.10;13.80;;;;;;;0.33;70.03;101076.09;102735;1261;110116;-68
2024/02/19 00:43:33;;;;;;;22.40;13.90;;;;;;;0.32;70.21;101071.61;102717;1261;138208;-68
2024/02/19 00:46:00;;;;;;;23.40;14.80;;;;;;;0.30;70.02;101056.52;102856;1260;97884;-69
2024/02/19 00:48:27;;;;;;;22.30;13.70;;;;;;;0.27;70.44;101047.73;102841;1261;106779;-69
2024/02/19 00:50:55;;;;;;;21.10;12.30;;;;;;;0.24;70.06;101043.91;102682;1264;138510;-68
2024/02/19 00:53:22;;;;;;;20.60;12.10;;;;;;;0.23;70.07;101042.34;102747;1261;111310;-69
2024/02/19 00:55:50;;;;;;;20.30;12.00;;;;;;;0.24;70.05;101031.92;102587;1263;138658;-68
2024/02/19 00:58:20;;;;;;;21.40;13.10;;;;;;;0.29;70.16;101022.95;102705;1263;97836;-69
2024/02/19 01:00:47;;;;;;;21.00;12.90;;;;;;;0.32;70.28;101026.80;102769;1260;106911;-68
2024/02/19 01:03:15;;;;;;;19.50;13.30;;;;;;;0.36;70.03;101015.59;102655;1260;137798;-68
2024/02/19 01:05:42;;;;;;;21.90;13.90;;;;;;;0.38;69.93;101018.89;102672;1260;110179;-67
2024/02/19 01:08:10;;;;;;;19.60;13.30;;;;;;;0.37;70.10;101017.85;102512;1261;138050;-68
2024/02/19 01:10:37;;;;;;;19.30;13.50;;;;;;;0.35;70.43;101012.13;102722;1260;97825;-68
2024/02/19 01:13:05;;;;;;;19.70;12.00;;;;;;;0.30;70.41;101012.90;102782;1261;107634;-69
2024/02/19 01:15:32;;;;;;;22.70;12.80;;;;;;;0.28;70.17;101012.69;102676;1260;97833;-69
2024/02/19 01:18:00;;;;;;;20.20;12.30;;;;;;;0.29;70.33;101010.64;102735;1260;111094;-68
2024/02/19 01:20:27;;;;;;;18.80;11.30;;;;;;;0.28;70.30;101002.77;102623;1260;138618;-67
2024/02/19 01:22:55;;;;;;;17.70;11.60;;;;;;;0.31;70.11;100999.23;102708;1264;97833;-68
2024/02/19 01:25:22;;;;;;;20.80;12.80;;;;;;;0.34;69.98;100994.66;102643;1263;138006;-68
2024/02/19 01:27:49;;;;;;;20.20;12.60;;;;;;;0.35;70.11;100985.96;102817;1264;97817;-67
2024/02/19 01:30:17;;;;;;;19.70;12.40;;;;;;;0.34;69.92;100984.41;102799;1260;111817;-68
2024/02/19 01:32:44;;;;;;;18.90;12.70;;;;;;;0.33;70.14;100975.82;102642;1261;138022;-68
2024/02/19 01:35:12;;;;;;;17.00;11.50;;;;;;;0.28;70.12;100974.55;102827;1260;97953;-68
2024/02/19 01:37:39;;;;;;;17.00;11.30;;;;;;;0.26;70.25;100965.09;102621;1261;138665;-68
2024/02/19 01:40:09;;;;;;;16.10;11.00;;;;;;;0.24;70.37;100952.23;102000;1263;1002738;-68
2024/02/19 01:42:37;;;;;;;15.60;11.10;;;;;;;0.24;70.61;100955.82;103841;1261;109973;-68
2024/02/19 01:45:07;;;;;;;16.50;10.70;;;;;;;0.26;70.56;100941.83;102642;1260;138254;-68
2024/02/19 01:47:36;;;;;;;16.90;11.70;;;;;;;0.26;70.32;100931.40;102759;1260;97846;-68
2024/02/19 01:50:04;;;;;;;18.20;11.20;;;;;;;0.26;70.32;100929.52;102645;1261;137932;-67
2024/02/19 01:52:31;;;;;;;16.30;10.90;;;;;;;0.25;70.51;100919.92;102746;1261;96459;-67
2024/02/19 01:54:59;;;;;;;16.70;11.30;;;;;;;0.22;70.45;100906.70;101937;1266;1003200;-67
2024/02/19 01:57:26;;;;;;;16.60;11.00;;;;;;;0.19;70.32;100905.63;102638;1263;137866;-66
2024/02/19 01:59:54;;;;;;;14.60;10.00;;;;;;;0.17;70.63;100915.13;102832;1260;97686;-68
2024/02/19 02:02:22;;;;;;;12.60;8.80;;;;;;;0.14;70.56;100907.72;102628;1262;139487;-68
2024/02/19 02:04:50;;;;;;;13.60;8.90;;;;;;;0.13;70.87;100910.26;102754;1261;97704;-69
2024/02/19 02:07:18;;;;;;;16.50;9.80;;;;;;;0.14;70.63;100895.58;102624;1260;137983;-68
2024/02/19 02:09:46;;;;;;;15.10;10.00;;;;;;;0.15;70.41;100885.16;102749;1264;107042;-70
2024/02/19 02:12:13;;;;;;;12.70;9.30;;;;;;;0.16;70.29;100881.91;102796;1261;97813;-68
2024/02/19 02:14:40;;;;;;;15.30;9.60;;;;;;;0.14;70.74;100883.61;102714;1260;137642;-68
2024/02/19 02:17:08;;;;;;;15.50;10.40;;;;;;;0.12;70.55;100883.40;102737;1263;97823;-68
2024/02/19 02:19:36;;;;;;;15.20;8.90;;;;;;;0.09;70.67;100873.94;102607;1264;137840;-68
2024/02/19 02:22:04;;;;;;;12.80;8.50;;;;;;;0.07;70.66;100875.09;102721;1263;106566;-69
2024/02/19 02:24:31;;;;;;;12.60;8.20;;;;;;;0.05;70.42;100875.06;102661;1264;97794;-68
2024/02/19 02:26:58;;;;;;;12.80;7.90;;;;;;;0.06;70.65;100879.52;102542;1264;138285;-69
2024/02/19 02:29:26;;;;;;;13.40;8.70;;;;;;;0.09;70.43;100877.53;102784;1263;97946;-68
2024/02/19 02:31:53;;;;;;;11.70;8.00;;;;;;;0.11;70.38;100879.95;102748;1259;137839;-69
2024/02/19 02:34:22;;;;;;;12.40;9.10;;;;;;;0.12;70.28;100869.54;102783;1261;108700;-69
2024/02/19 02:36:49;;;;;;;13.60;9.50;;;;;;;0.10;70.27;100875.49;102862;1263;98077;-68
2024/02/19 02:39:17;;;;;;;13.80;8.80;;;;;;;0.06;70.49;100858.84;101923;1260;1003781;-69
2024/02/19 02:41:44;;;;;;;12.50;9.20;;;;;;;0.01;70.44;100857.20;102635;1263;97893;-68
2024/02/19 02:44:12;;;;;;;14.10;8.70;;;;;;;-0.05;70.60;100847.66;101923;1260;1003255;-69
2024/02/19 02:46:39;;;;;;;12.40;8.90;;;;;;;-0.10;70.66;100849.10;102026;1263;1005734;-68
2024/02/19 02:49:06;;;;;;;11.60;7.80;;;;;;;-0.13;70.56;100844.42;102768;1261;99881;-69
2024/02/19 02:51:34;;;;;;;11.50;8.10;;;;;;;-0.15;71.01;100836.02;102681;1260;107709;-68
2024/02/19 02:54:01;;;;;;;10.70;8.20;;;;;;;-0.14;70.92;100839.63;102755;1260;97885;-68
2024/02/19 02:56:29;;;;;;;13.70;8.80;;;;;;;-0.14;70.97;100835.86;102677;1264;138302;-69
2024/02/19 02:58:56;;;;;;;14.60;9.20;;;;;;;-0.13;70.66;100828.53;102778;1259;106709;-68
2024/02/19 03:01:30;;;;;;;13.50;9.00;;;;;;;-0.13;70.68;100821.86;102609;1264;140698;-69
2024/02/19 03:03:58;;;;;;;12.40;9.10;;;;;;;-0.14;70.76;100823.05;101972;1261;1002686;-68
2024/02/19 03:06:25;;;;;;;13.20;8.60;;;;;;;-0.17;70.86;100809.32;103028;1263;97811;-70
2024/02/19 03:08:53;;;;;;;11.70;8.50;;;;;;;-0.18;70.74;100810.63;102626;1263;138506;-69
2024/02/19 03:11:21;;;;;;;11.90;8.10;;;;;;;-0.20;71.18;100799.66;102734;1260;109629;-69
2024/02/19 03:13:49;;;;;;;11.90;8.10;;;;;;;-0.21;71.19;100790.08;102835;1260;139227;-69
2024/02/19 03:16:17;;;;;;;12.70;8.20;;;;;;;-0.21;71.50;100789.72;102677;1260;109953;-69
2024/02/19 03:18:44;;;;;;;12.40;8.20;;;;;;;-0.20;71.05;100789.23;101989;1261;1002699;-69
2024/02/19 03:21:15;;;;;;;11.50;8.20;;;;;;;-0.21;71.35;100795.72;102757;1259;138164;-70
2024/02/19 03:23:51;;;;;;;13.70;8.30;;;;;;;-0.21;70.94;100793.66;102771;1260;106802;-71
2024/02/19 03:26:25;;;;;;;11.90;8.80;;;;;;;-0.24;71.75;100797.20;102726;1261;138043;-70
2024/02/19 03:29:12;;;;;;;12.90;8.40;;;;;;;-0.27;71.59;100772.87;102889;1260;107668;-70
2024/02/19 03:31:42;;;;;;;14.70;8.80;;;;;;;-0.30;71.55;100771.80;102613;1259;138747;-69
2024/02/19 03:34:09;;;;;;;12.20;7.80;;;;;;;-0.31;71.58;100768.70;102764;1261;110703;-69
2024/02/19 03:36:37;;;;;;;11.40;8.80;;;;;;;-0.31;71.85;100759.66;102760;1264;107216;-70
2024/02/19 03:39:04;;;;;;;11.30;8.60;;;;;;;-0.30;71.84;100761.54;102620;1264;138544;-69
2024/02/19 03:41:32;;;;;;;11.70;8.50;;;;;;;-0.31;71.89;100762.55;103349;1260;107062;-71
2024/02/19 03:43:59;;;;;;;11.40;8.40;;;;;;;-0.29;71.79;100760.36;102670;1259;139075;-70
2024/02/19 03:46:26;;;;;;;11.90;8.50;;;;;;;-0.28;71.87;100771.33;102784;1264;111450;-69
2024/02/19 03:48:55;;;;;;;13.30;9.20;;;;;;;-0.27;71.76;100775.44;102707;1261;108905;-69
2024/02/19 03:51:23;;;;;;;12.70;10.00;;;;;;;-0.27;72.00;100770.65;102624;1261;137941;-69
2024/02/19 03:53:50;;;;;;;12.30;8.70;;;;;;;-0.29;72.15;100770.45;102717;1266;107499;-71
2024/02/19 03:56:18;;;;;;;12.40;8.50;;;;;;;-0.32;72.27;100764.23;102776;1260;138644;-69
2024/02/19 03:58:45;;;;;;;10.70;8.00;;;;;;;-0.34;72.27;100747.80;103837;1259;110605;-70
2024/02/19 04:01:12;;;;;;;10.60;8.00;;;;;;;-0.35;72.56;100744.36;102480;1260;138981;-71
2024/02/19 04:03:40;;;;;;;12.00;8.40;;;;;;;-0.34;72.63;100728.81;102762;1260;97845;-71
2024/02/19 04:06:07;;;;;;;10.30;8.50;;;;;;;-0.34;72.74;100734.30;102584;1264;108202;-71
2024/02/19 04:08:35;;;;;;;11.60;9.00;;;;;;;-0.34;72.57;100710.38;103444;1260;137880;-70
2024/02/19 04:11:02;;;;;;;13.60;8.90;;;;;;;-0.36;72.86;100725.72;102993;1259;109906;-71
2024/02/19 04:13:29;;;;;;;11.30;9.00;;;;;;;-0.39;72.70;100700.69;102599;1260;138320;-70
2024/02/19 04:15:58;;;;;;;16.60;8.60;;;;;;;-0.41;73.10;100701.85;102764;1259;97799;-71
2024/02/19 04:18:25;;;;;;;10.80;8.10;;;;;;;-0.42;72.77;100703.71;102715;1263;107972;-70
2024/02/19 04:20:52;;;;;;;10.30;7.90;;;;;;;-0.43;73.00;100703.34;102734;1263;138761;-72
2024/02/19 04:23:19;;;;;;;10.40;8.00;;;;;;;-0.44;73.20;100677.53;102823;1260;111004;-71
2024/02/19 04:25:48;;;;;;;10.90;8.00;;;;;;;-0.45;73.15;100664.70;103206;1260;139177;-71
2024/02/19 04:28:15;;;;;;;10.10;8.00;;;;;;;-0.45;73.10;100664.38;102862;1261;97862;-69
2024/02/19 04:30:43;;;;;;;13.30;9.00;;;;;;;-0.44;73.04;100649.35;102944;1260;107821;-71
2024/02/19 04:33:10;;;;;;;12.20;8.70;;;;;;;-0.45;73.05;100644.73;102775;1262;140094;-71
2024/02/19 04:35:38;;;;;;;11.50;8.10;;;;;;;-0.43;73.23;100654.48;103591;1260;111276;-71
2024/02/19 04:38:05;;;;;;;10.70;7.90;;;;;;;-0.43;73.17;100661.84;103513;1260;138654;-72
2024/02/19 04:40:33;;;;;;;9.40;7.70;;;;;;;-0.43;73.36;100687.13;103069;1260;98326;-69
2024/02/19 04:43:00;;;;;;;9.40;7.50;;;;;;;-0.43;73.39;100667.66;103064;1260;108321;-71
2024/02/19 04:45:27;;;;;;;9.00;7.60;;;;;;;-0.42;73.23;100664.25;102952;1261;138343;-71
2024/02/19 04:47:55;;;;;;;11.40;8.10;;;;;;;-0.40;73.29;100656.77;102767;1260;111408;-71
2024/02/19 04:50:22;;;;;;;8.90;7.60;;;;;;;-0.40;73.17;100651.65;103008;1260;139993;-71
2024/02/19 04:52:49;;;;;;;11.10;8.20;;;;;;;-0.39;73.37;100650.98;103100;1259;97865;-72
2024/02/19 04:55:17;;;;;;;15.10;8.60;;;;;;;-0.39;73.36;100647.55;103159;1259;138642;-70
2024/02/19 04:57:44;;;;;;;9.40;8.30;;;;;;;-0.41;73.40;100646.68;104273;1259;95998;-71
2024/02/19 05:00:14;;;;;;;11.50;8.20;;;;;;;-0.42;73.55;100651.61;102967;1258;111190;-73
2024/02/19 05:02:41;;;;;;;9.40;7.60;;;;;;;-0.43;73.60;100635.87;102726;1259;138592;-72
2024/02/19 05:05:10;;;;;;;10.50;8.00;;;;;;;-0.45;73.95;100631.75;103047;1259;97814;-72
2024/02/19 05:07:37;;;;;;;12.00;8.20;;;;;;;-0.46;74.02;100631.73;103227;1259;139121;-72
2024/02/19 05:10:07;;;;;;;12.30;8.30;;;;;;;-0.47;73.89;100634.10;102947;1263;97701;-70
2024/02/19 05:12:34;;;;;;;10.20;8.00;;;;;;;-0.48;73.67;100618.54;102958;1259;110931;-72
2024/02/19 05:15:01;;;;;;;14.00;8.40;;;;;;;-0.49;73.75;100604.17;103384;1260;1002799;-72
2024/02/19 05:17:29;;;;;;;11.50;8.00;;;;;;;-0.49;74.06;100611.18;102481;1259;1002760;-71
2024/02/19 05:19:56;;;;;;;10.70;8.10;;;;;;;-0.50;74.41;100602.80;103525;1259;139019;-72
2024/02/19 05:22:24;;;;;;;10.10;7.80;;;;;;;-0.51;74.28;100590.14;104243;1259;95790;-72
2024/02/19 05:24:51;;;;;;;9.90;8.30;;;;;;;-0.52;74.24;100593.02;103072;1259;110619;-71
2024/02/19 05:27:19;;;;;;;11.30;8.80;;;;;;;-0.52;74.32;100597.63;103692;1261;139393;-73
2024/02/19 05:29:46;;;;;;;15.10;9.00;;;;;;;-0.52;74.30;100596.25;103034;1261;97788;-72
2024/02/19 05:32:14;;;;;;;11.10;8.20;;;;;;;-0.53;74.42;100599.16;103390;1259;138569;-72
2024/02/19 05:34:46;;;;;;;9.60;8.30;;;;;;;-0.53;74.39;100590.61;104115;1259;95983;-72
2024/02/19 05:37:15;;;;;;;10.20;8.30;;;;;;;-0.53;74.49;100581.89;102727;1260;138644;-73
2024/02/19 05:39:42;;;;;;;11.50;7.80;;;;;;;-0.55;74.72;100559.30;103516;1259;105872;-73
2024/02/19 05:42:09;;;;;;;11.30;8.70;;;;;;;-0.54;74.43;100549.40;104114;1259;96172;-74
2024/02/19 05:44:37;;;;;;;11.90;8.30;;;;;;;-0.52;75.19;100563.64;102858;1259;138438;-73
2024/02/19 05:47:04;;;;;;;10.30;7.80;;;;;;;-0.49;74.82;100574.63;102900;1263;98659;-73
2024/02/19 05:49:32;;;;;;;12.20;7.80;;;;;;;-0.48;74.41;100570.71;102700;1259;139502;-73
2024/02/19 05:51:59;;;;;;;11.00;8.00;;;;;;;-0.48;74.26;100559.79;103536;1259;107620;-71
2024/02/19 05:54:27;;;;;;;9.70;7.70;;;;;;;-0.46;74.13;100550.25;103853;1261;96494;-72
2024/02/19 05:56:55;;;;;;;12.20;8.30;;;;;;;-0.44;74.17;100554.55;102768;1263;138319;-74
2024/02/19 05:59:22;;;;;;;12.10;8.40;;;;;;;-0.41;74.22;100554.25;102789;1259;97862;-73
2024/02/19 06:01:49;;;;;;;11.00;7.70;;;;;;;-0.39;74.17;100563.34;103061;1260;139008;-73
2024/02/19 06:04:17;;;;;;;10.50;7.60;;;;;;;-0.39;74.38;100567.94;103189;1259;1002816;-74
2024/02/19 06:06:44;;;;;;;10.00;7.80;;;;;;;-0.39;74.49;100570.16;103053;1261;97704;-71
2024/02/19 06:09:12;;;;;;;10.80;7.60;;;;;;;-0.39;74.51;100572.39;102744;1259;138512;-71
2024/02/19 06:11:45;;;;;;;9.00;7.50;;;;;;;-0.42;74.49;100569.77;102758;1259;97694;-69
2024/02/19 06:14:13;;;;;;;10.90;8.00;;;;;;;-0.42;74.64;100564.31;102872;1259;1003261;-70
2024/02/19 06:16:40;;;;;;;11.70;8.00;;;;;;;-0.43;74.76;100551.65;102855;1263;107325;-70
2024/02/19 06:19:08;;;;;;;10.70;8.40;;;;;;;-0.46;74.91;100545.98;102922;1259;97712;-70
2024/02/19 06:21:36;;;;;;;10.20;8.10;;;;;;;-0.46;75.01;100540.85;102900;1259;107373;-72
2024/02/19 06:24:04;;;;;;;10.90;8.10;;;;;;;-0.45;74.88;100531.98;102880;1259;97832;-73
2024/02/19 06:26:31;;;;;;;9.90;8.00;;;;;;;-0.45;75.23;100517.29;103436;1263;138707;-73
2024/02/19 06:28:59;;;;;;;10.80;7.70;;;;;;;-0.45;75.02;100498.15;102814;1259;107257;-73
2024/02/19 06:31:27;;;;;;;14.10;7.90;;;;;;;-0.43;75.06;100498.36;103390;1259;138730;-72
2024/02/19 06:33:55;;;;;;;9.80;7.70;;;;;;;-0.41;75.12;100487.11;103329;1259;107636;-71
2024/02/19 06:36:23;;;;;;;9.90;7.80;;;;;;;-0.37;74.87;100491.11;103589;1259;97807;-71
2024/02/19 06:38:51;;;;;;;12.00;7.30;;;;;;;-0.31;74.83;100511.55;102731;1263;139528;-74
2024/02/19 06:41:18;;;;;;;10.40;7.30;;;;;;;-0.26;74.55;100519.82;102817;1259;107986;-74
2024/02/19 06:43:46;;;;;;;10.60;7.60;;;;;;;-0.18;74.33;100506.95;103138;1260;138783;-73
2024/02/19 06:46:15;;;;;;;10.00;7.40;;;;;;;-0.11;74.22;100497.51;102626;1259;109482;-73
2024/02/19 06:48:44;;;;;;;12.00;8.10;;;;;;;-0.01;73.92;100496.95;104123;1259;96676;-75
2024/02/19 06:51:15;;;;;;;11.50;7.40;;;;;;;0.10;73.65;100492.84;103952;1262;138691;-73
2024/02/19 06:53:42;;;;;;;11.30;8.10;;;;;;;0.19;73.21;100494.34;102710;1258;108269;-72
2024/02/19 06:56:12;;;;;;;11.50;7.30;;;;;;;0.31;72.92;100483.38;102619;1259;138489;-72
2024/02/19 06:58:39;;;;;;;10.50;7.60;;;;;;;0.45;72.35;100469.88;103331;1261;1003040;-73
2024/02/19 07:01:06;;;;;;;8.70;7.30;;;;;;;0.62;71.96;100462.73;104152;1261;96553;-73
2024/02/19 07:03:34;;;;;;;11.30;7.90;;;;;;;0.79;71.57;100440.33;104114;1261;110550;-73
2024/02/19 07:06:02;;;;;;;13.20;8.20;;;;;;;1.04;70.76;100456.67;104077;1260;106755;-81
2024/02/19 07:08:29;;;;;;;10.40;8.00;;;;;;;1.15;70.12;100456.95;104083;1261;139701;-76
2024/02/19 07:10:56;;;;;;;9.90;7.80;;;;;;;1.23;69.79;100444.67;102988;1259;107126;-76
2024/02/19 07:13:23;;;;;;;11.00;8.50;;;;;;;1.27;69.51;100457.58;102649;1259;138232;-72
2024/02/19 07:15:51;;;;;;;11.90;8.10;;;;;;;1.26;69.33;100454.30;103505;1261;110768;-72
2024/02/19 07:18:19;;;;;;;11.80;7.90;;;;;;;1.19;69.28;100458.88;102622;1259;107917;-70
2024/02/19 07:20:46;;;;;;;11.30;8.00;;;;;;;1.10;69.41;100446.81;103594;1259;138383;-70
2024/02/19 07:23:13;;;;;;;10.70;8.00;;;;;;;1.04;69.50;100445.36;104170;1259;106847;-70
2024/02/19 07:25:41;;;;;;;13.60;7.90;;;;;;;1.00;69.78;100449.09;104038;1258;139280;-70
2024/02/19 07:28:08;;;;;;;10.20;7.70;;;;;;;0.99;69.89;100439.50;104125;1259;110984;-70
2024/02/19 07:30:37;;;;;;;9.50;7.70;;;;;;;0.98;69.82;100444.45;104104;1259;107564;-70
2024/02/19 07:33:05;;;;;;;14.20;8.30;;;;;;;0.96;69.92;100448.89;103326;1259;1002341;-71
2024/02/19 07:35:32;;;;;;;12.00;8.50;;;;;;;0.97;69.98;100444.10;104182;1259;108053;-73
2024/02/19 07:37:59;;;;;;;11.00;8.80;;;;;;;0.97;70.07;100443.42;104017;1258;137952;-75
2024/02/19 07:40:27;;;;;;;11.50;8.30;;;;;;;0.98;70.06;100442.91;104096;1259;110817;-74
2024/02/19 07:42:57;;;;;;;11.40;8.50;;;;;;;0.96;70.22;100444.61;102642;1263;107524;-74
2024/02/19 07:45:24;;;;;;;13.00;8.00;;;;;;;0.94;70.37;100432.95;102513;1263;138286;-74
2024/02/19 07:47:53;;;;;;;13.40;8.50;;;;;;;0.95;70.29;100450.42;102662;1263;108260;-75
2024/02/19 07:50:21;;;;;;;9.30;8.00;;;;;;;0.95;70.25;100440.48;102537;1259;139142;-74
2024/02/19 07:52:49;;;;;;;11.00;8.30;;;;;;;0.96;70.38;100439.98;102740;1259;111019;-75
2024/02/19 07:55:16;;;;;;;10.20;8.20;;;;;;;1.00;70.36;100438.64;102485;1262;138802;-74
2024/02/19 07:57:43;;;;;;;12.40;8.00;;;;;;;1.01;70.35;100437.29;102678;1259;97843;-73
2024/02/19 08:00:12;;;;;;;15.20;7.60;;;;;;;1.03;70.17;100430.46;102445;1259;107999;-78
2024/02/19 08:02:40;;;;;;;11.20;8.40;;;;;;;1.05;70.31;100435.27;102981;1259;139324;-77
2024/02/19 08:05:08;;;;;;;9.40;8.20;;;;;;;1.05;70.36;100425.84;102422;1264;112337;-75
2024/02/19 08:07:35;;;;;;;15.00;8.80;;;;;;;1.07;70.31;100426.05;102421;1263;139671;-76
2024/02/19 08:10:03;;;;;;;12.70;8.80;;;;;;;1.09;70.36;100416.15;102609;1258;97780;-75
2024/02/19 08:12:33;;;;;;;12.70;8.20;;;;;;;1.09;70.15;100435.33;102603;1259;108652;-76
2024/02/19 08:15:00;;;;;;;11.70;8.50;;;;;;;1.08;70.23;100416.32;102529;1261;138403;-74
2024/02/19 08:17:27;;;;;;;13.40;9.60;;;;;;;1.10;70.29;100418.20;102634;1259;111642;-76
2024/02/19 08:19:55;;;;;;;13.80;9.70;;;;;;;1.11;70.35;100419.08;102567;1259;138555;-75
2024/02/19 08:22:23;;;;;;;13.80;9.90;;;;;;;1.12;70.36;100409.48;102672;1259;98516;-76
2024/02/19 08:24:50;;;;;;;15.60;10.60;;;;;;;1.13;70.35;100412.75;102689;1259;108441;-78
2024/02/19 08:27:17;;;;;;;15.20;9.40;;;;;;;1.13;70.34;100413.61;102575;1259;138877;-78
2024/02/19 08:29:44;;;;;;;13.20;9.30;;;;;;;1.15;70.32;100417.21;102699;1259;111351;-74
2024/02/19 08:32:12;;;;;;;14.60;9.10;;;;;;;1.13;70.40;100412.24;102490;1259;138994;-76
2024/02/19 08:34:39;;;;;;;13.60;9.20;;;;;;;1.13;70.36;100410.53;102617;1259;97811;-75
2024/02/19 08:37:06;;;;;;;12.90;8.40;;;;;;;1.14;70.42;100409.52;102623;1259;106152;-78
2024/02/19 08:39:34;;;;;;;12.80;8.90;;;;;;;1.18;70.47;100396.52;102714;1259;97796;-76
2024/02/19 08:42:03;;;;;;;13.40;9.00;;;;;;;1.25;70.38;100389.89;102742;1263;110989;-77
2024/02/19 08:44:30;;;;;;;17.30;8.80;;;;;;;1.31;70.16;100386.69;102540;1261;139382;-79
2024/02/19 08:47:03;;;;;;;12.60;9.00;;;;;;;1.37;70.15;100390.84;102744;1263;98337;-78
2024/02/19 08:49:30;;;;;;;14.30;8.80;;;;;;;1.42;69.85;100387.78;102563;1263;137962;-79
2024/02/19 08:51:57;;;;;;;12.80;9.30;;;;;;;1.43;69.78;100386.77;102672;1259;97768;-78
2024/02/19 08:54:24;;;;;;;16.80;9.70;;;;;;;1.43;69.73;100387.10;102673;1258;110901;-78
2024/02/19 08:56:53;;;;;;;11.60;9.20;;;;;;;1.42;69.81;100382.64;102546;1263;137715;-76
2024/02/19 08:59:21;;;;;;;16.50;10.30;;;;;;;1.40;69.99;100374.92;102655;1259;99276;-78
2024/02/19 09:01:48;;;;;;;13.60;10.00;;;;;;;1.40;70.14;100376.98;102543;1259;138763;-78
2024/02/19 09:04:15;;;;;;;15.00;10.00;;;;;;;1.41;70.21;100382.80;102587;1261;97833;-79
2024/02/19 09:06:43;;;;;;;14.40;9.30;;;;;;;1.39;70.22;100378.52;102695;1259;111345;-80
2024/02/19 09:09:10;;;;;;;13.20;9.20;;;;;;;1.35;70.24;100374.38;102564;1259;139265;-81
2024/02/19 09:11:38;;;;;;;12.80;9.10;;;;;;;1.36;70.52;100373.70;102717;1259;97820;-78
2024/02/19 09:14:05;;;;;;;10.60;8.80;;;;;;;1.37;70.50;100371.98;102587;1264;138804;-80
2024/02/19 09:16:32;;;;;;;13.50;9.70;;;;;;;1.38;70.64;100366.69;102643;1263;97881;-81
2024/02/19 09:19:00;;;;;;;14.20;9.20;;;;;;;1.39;70.62;100365.66;102745;1259;110841;-70
2024/02/19 09:21:27;;;;;;;14.00;9.80;;;;;;;1.40;70.58;100364.30;104031;1259;138632;-71
2024/02/19 09:23:55;;;;;;;15.00;10.00;;;;;;;1.41;70.60;100354.70;103486;1259;98050;-73
2024/02/19 09:26:22;;;;;;;15.00;9.70;;;;;;;1.43;70.74;100354.22;102650;1259;138066;-73
2024/02/19 09:28:49;;;;;;;12.70;9.40;;;;;;;1.44;70.79;100346.87;102758;1262;98028;-74
2024/02/19 09:31:17;;;;;;;12.10;10.10;;;;;;;1.47;70.70;100342.77;102579;1262;138641;-72
2024/02/19 09:33:45;;;;;;;11.00;9.60;;;;;;;1.52;70.65;100335.95;102670;1263;107078;-71
2024/02/19 09:36:18;;;;;;;11.80;9.20;;;;;;;1.58;70.59;100333.40;103191;1261;98870;-72
2024/02/19 09:38:45;;;;;;;12.40;9.70;;;;;;;1.61;70.66;100335.83;103727;1259;138219;-72
2024/02/19 09:41:12;;;;;;;15.50;10.00;;;;;;;1.68;70.75;100336.89;102648;1259;97728;-71
2024/02/19 09:43:40;;;;;;;11.80;9.00;;;;;;;1.73;70.78;100337.25;102667;1263;138682;-71
2024/02/19 09:46:14;;;;;;;13.40;8.80;;;;;;;1.77;71.04;100339.33;102590;1259;106477;-70
2024/02/19 09:48:44;;;;;;;13.90;9.90;;;;;;;1.80;71.23;100335.76;104156;1259;96847;-71
2024/02/19 09:51:17;;;;;;;15.00;10.10;;;;;;;1.85;71.93;100337.15;103349;1259;1002671;-67
2024/02/19 09:53:59;;;;;;;14.40;10.90;;;;;;;1.84;72.26;100328.91;103612;1259;96085;-69
2024/02/19 09:56:28;;;;;;;13.50;10.80;;;;;;;1.81;72.64;100333.71;103898;1261;137952;-70
2024/02/19 09:58:56;;;;;;;17.60;11.50;;;;;;;1.76;73.11;100325.10;102650;1259;106043;-70
2024/02/19 10:01:24;;;;;;;14.60;11.20;;;;;;;1.72;73.47;100324.91;104090;1259;139285;-71
2024/02/19 10:03:52;;;;;;;13.70;10.60;;;;;;;1.69;73.81;100319.42;103373;1259;107277;-69
2024/02/19 10:06:19;;;;;;;12.80;10.60;;;;;;;1.65;74.55;100324.20;102624;1259;97720;-71
2024/02/19 10:08:48;;;;;;;15.50;10.40;;;;;;;1.61;74.83;100313.20;102598;1259;138406;-72
2024/02/19 10:11:17;;;;;;;13.90;10.70;;;;;;;1.61;74.96;100314.91;102671;1263;107670;-73
2024/02/19 10:13:44;;;;;;;12.90;10.40;;;;;;;1.61;75.46;100310.45;101797;1259;1003770;-75
2024/02/19 10:16:12;;;;;;;12.90;10.30;;;;;;;1.61;75.87;100304.96;101827;1261;1002532;-74
2024/02/19 10:18:40;;;;;;;14.00;10.90;;;;;;;1.62;75.89;100305.67;102694;1261;97800;-75
2024/02/19 10:21:10;;;;;;;15.30;11.20;;;;;;;1.63;76.69;100304.66;102428;1261;138619;-75
2024/02/19 10:23:39;;;;;;;17.10;11.70;;;;;;;1.62;77.08;100299.49;102704;1259;107186;-74
2024/02/19 10:26:07;;;;;;;16.40;11.20;;;;;;;1.58;78.04;100299.13;102604;1259;139715;-72
2024/02/19 10:28:34;;;;;;;14.10;11.50;;;;;;;1.55;78.49;100296.89;102699;1259;107266;-73
2024/02/19 10:31:01;;;;;;;15.30;11.70;;;;;;;1.50;79.09;100292.07;103450;1263;96334;-74
2024/02/19 10:33:29;;;;;;;15.10;11.50;;;;;;;1.46;79.97;100282.46;103977;1259;138431;-73
2024/02/19 10:35:58;;;;;;;17.20;11.30;;;;;;;1.42;81.21;100287.90;103227;1263;107278;-74
2024/02/19 10:38:25;;;;;;;15.50;11.90;;;;;;;1.38;81.43;100281.55;102692;1259;138707;-81
2024/02/19 10:40:52;;;;;;;14.90;11.30;;;;;;;1.37;81.89;100276.06;102822;1263;107660;-81
2024/02/19 10:43:20;;;;;;;14.30;11.60;;;;;;;1.35;82.76;100272.63;102748;1261;139888;-73
2024/02/19 10:45:50;;;;;;;15.40;12.10;;;;;;;1.36;83.03;100268.34;102796;1263;109438;-75
2024/02/19 10:48:17;;;;;;;16.20;12.60;;;;;;;1.39;83.18;100256.88;102735;1263;106603;-75
2024/02/19 10:50:48;;;;;;;15.30;12.40;;;;;;;1.43;83.41;100261.20;102738;1259;140150;-76
2024/02/19 10:53:16;;;;;;;16.10;12.90;;;;;;;1.48;83.60;100257.63;102838;1259;109104;-77
2024/02/19 10:55:45;;;;;;;17.10;12.60;;;;;;;1.50;84.27;100250.26;102660;1264;139686;-77
2024/02/19 10:58:27;;;;;;;20.60;13.20;;;;;;;1.49;84.66;100244.43;102860;1261;110318;-77
2024/02/19 11:00:58;;;;;;;17.90;12.70;;;;;;;1.45;85.03;100240.83;102845;1259;106431;-78
2024/02/19 11:03:30;;;;;;;16.50;12.60;;;;;;;1.42;85.19;100234.10;102057;1261;1002672;-78
2024/02/19 11:06:02;;;;;;;18.50;12.20;;;;;;;1.39;86.12;100246.59;102871;1264;107798;-77
2024/02/19 11:08:34;;;;;;;15.80;12.00;;;;;;;1.32;86.83;100246.23;102726;1259;139000;-75